Ana Sayfa
METAR-TAF:

METAR-TAF

Havaalanları :

Roi Et, Tayland

Enlem: 16-07-00N, Boylam: 103-46-26E, yükseklik: 138 m

Güncel hava durumu gözlemi

Rapor saat 09:00 UTC de 26 dakika önce yapıldı.
Rüzgar değişken yönden 5 kt
Sıcaklık 34°C
Nem 23%
Basınç 1010 hPa
Görüş mesafesi 10 km veya daha fazla
1500 m altında bulut yok ve kümülonimbus yok

METAR: VTUV 250900Z VRB05KT CAVOK 34/10 Q1010 NOSIG

Saat: 16:26 (09:26 UTC)

Tahmin

Rapor saat 05:00 UTC de 4 saat ve 26 dakika önce yapıldı.
Ayın 25'si saat 06 UTC'den ayın 26'si saat 06 UTC'ye kadar geçerli Tahmin
Rüzgar doğudan 6 kt
Görüş mesafesi: 9000 m

TAF: VTUV 250500Z 2506/2606 08006KT 9000 NSC

4.000'den fazla havaalanı için hava durumu gözlemleri ve tahminleri (METAR ve TAF raporları).

Kullanılabilir istasyonlar harita üzerinde sarı ve kırmızı noktalarla gösterilir.

İstasyonun adını görmek için fareyi noktanın üzerinde gezdirin.

Sonrasında hava gözlem ve tahminlerini görmek için tıklayın.

Haritayı değiştirmek için: yaklaştırmak için siyah artı işaretli yeşil düğmeye ve uzaklaştırmak için de eksi işaretli düğmeye hızla tıklayın; bitişik haritalar için yeşil okları kullanın.


METAR-TAF: